sensor_id;sensor_type;location;lat;lon;timestamp;temperature;humidity
55331;DHT22;58851;42.984;20.336;2023-09-08T00:00:00;359.10;128.00
55331;DHT22;58851;42.984;20.336;2023-09-08T00:02:27;359.00;128.00
55331;DHT22;58851;42.984;20.336;2023-09-08T00:04:53;358.90;128.00
55331;DHT22;58851;42.984;20.336;2023-09-08T00:07:19;358.90;128.00
55331;DHT22;58851;42.984;20.336;2023-09-08T00:09:45;358.90;128.00
55331;DHT22;58851;42.984;20.336;2023-09-08T00:12:11;359.00;128.00
55331;DHT22;58851;42.984;20.336;2023-09-08T00:14:37;359.00;128.00
55331;DHT22;58851;42.984;20.336;2023-09-08T00:17:03;359.10;128.00
55331;DHT22;58851;42.984;20.336;2023-09-08T00:19:30;359.10;128.00
55331;DHT22;58851;42.984;20.336;2023-09-08T00:21:56;359.10;128.00
55331;DHT22;58851;42.984;20.336;2023-09-08T00:24:22;359.10;128.00
55331;DHT22;58851;42.984;20.336;2023-09-08T00:26:48;359.10;128.00
55331;DHT22;58851;42.984;20.336;2023-09-08T00:29:14;359.10;128.00
55331;DHT22;58851;42.984;20.336;2023-09-08T00:31:39;359.20;128.00
55331;DHT22;58851;42.984;20.336;2023-09-08T00:34:06;359.20;128.00
55331;DHT22;58851;42.984;20.336;2023-09-08T00:36:32;359.10;128.00
55331;DHT22;58851;42.984;20.336;2023-09-08T00:38:58;358.80;128.00
55331;DHT22;58851;42.984;20.336;2023-09-08T00:41:23;358.80;128.00
55331;DHT22;58851;42.984;20.336;2023-09-08T00:43:50;358.90;128.00
55331;DHT22;58851;42.984;20.336;2023-09-08T00:46:16;358.80;128.00
55331;DHT22;58851;42.984;20.336;2023-09-08T00:48:42;358.90;128.00
55331;DHT22;58851;42.984;20.336;2023-09-08T00:51:09;358.70;128.00
55331;DHT22;58851;42.984;20.336;2023-09-08T00:53:37;358.50;128.00
55331;DHT22;58851;42.984;20.336;2023-09-08T00:56:04;358.60;128.00
55331;DHT22;58851;42.984;20.336;2023-09-08T00:58:30;358.70;128.00
55331;DHT22;58851;42.984;20.336;2023-09-08T01:00:56;358.60;128.00
55331;DHT22;58851;42.984;20.336;2023-09-08T01:03:25;358.70;128.00
55331;DHT22;58851;42.984;20.336;2023-09-08T01:05:51;358.70;128.00
55331;DHT22;58851;42.984;20.336;2023-09-08T01:08:17;358.70;128.00
55331;DHT22;58851;42.984;20.336;2023-09-08T01:10:45;358.70;128.00
55331;DHT22;58851;42.984;20.336;2023-09-08T01:13:11;358.70;128.00
55331;DHT22;58851;42.984;20.336;2023-09-08T01:15:36;358.70;128.00
55331;DHT22;58851;42.984;20.336;2023-09-08T01:18:02;358.70;128.00
55331;DHT22;58851;42.984;20.336;2023-09-08T01:26:17;358.50;128.00
55331;DHT22;58851;42.984;20.336;2023-09-08T01:28:45;358.60;128.00
55331;DHT22;58851;42.984;20.336;2023-09-08T01:31:13;358.60;128.00
55331;DHT22;58851;42.984;20.336;2023-09-08T01:33:40;358.60;128.00
55331;DHT22;58851;42.984;20.336;2023-09-08T01:36:07;358.60;128.00
55331;DHT22;58851;42.984;20.336;2023-09-08T01:38:33;358.60;128.00
55331;DHT22;58851;42.984;20.336;2023-09-08T01:40:59;358.60;128.00
55331;DHT22;58851;42.984;20.336;2023-09-08T01:43:27;358.60;128.00
55331;DHT22;58851;42.984;20.336;2023-09-08T01:45:53;358.50;128.00
55331;DHT22;58851;42.984;20.336;2023-09-08T01:48:19;358.40;128.00
55331;DHT22;58851;42.984;20.336;2023-09-08T01:50:45;333.70;128.00
55331;DHT22;58851;42.984;20.336;2023-09-08T01:53:12;333.70;128.00
55331;DHT22;58851;42.984;20.336;2023-09-08T01:55:37;333.70;128.00
55331;DHT22;58851;42.984;20.336;2023-09-08T01:58:03;333.70;128.00
55331;DHT22;58851;42.984;20.336;2023-09-08T02:00:29;333.60;128.00
55331;DHT22;58851;42.984;20.336;2023-09-08T02:02:55;333.70;128.00
55331;DHT22;58851;42.984;20.336;2023-09-08T02:05:21;333.50;128.00
55331;DHT22;58851;42.984;20.336;2023-09-08T02:07:46;333.70;128.00
55331;DHT22;58851;42.984;20.336;2023-09-08T02:10:12;333.70;128.00
55331;DHT22;58851;42.984;20.336;2023-09-08T02:12:38;358.40;128.00
55331;DHT22;58851;42.984;20.336;2023-09-08T02:15:04;358.40;128.00
55331;DHT22;58851;42.984;20.336;2023-09-08T02:17:30;358.40;128.00
55331;DHT22;58851;42.984;20.336;2023-09-08T02:19:56;358.50;128.00
55331;DHT22;58851;42.984;20.336;2023-09-08T02:22:22;358.40;128.00
55331;DHT22;58851;42.984;20.336;2023-09-08T02:24:47;358.50;128.00
55331;DHT22;58851;42.984;20.336;2023-09-08T02:27:13;358.60;128.00
55331;DHT22;58851;42.984;20.336;2023-09-08T02:29:39;358.60;128.00
55331;DHT22;58851;42.984;20.336;2023-09-08T02:32:05;358.60;128.00
55331;DHT22;58851;42.984;20.336;2023-09-08T02:34:34;358.60;128.00
55331;DHT22;58851;42.984;20.336;2023-09-08T02:37:02;358.70;128.00
55331;DHT22;58851;42.984;20.336;2023-09-08T02:39:28;358.70;128.00
55331;DHT22;58851;42.984;20.336;2023-09-08T02:41:53;358.70;128.00
55331;DHT22;58851;42.984;20.336;2023-09-08T02:44:20;358.70;128.00
55331;DHT22;58851;42.984;20.336;2023-09-08T02:46:47;358.70;128.00
55331;DHT22;58851;42.984;20.336;2023-09-08T02:49:13;358.70;128.00
55331;DHT22;58851;42.984;20.336;2023-09-08T02:51:39;358.70;128.00
55331;DHT22;58851;42.984;20.336;2023-09-08T02:54:05;358.60;128.00
55331;DHT22;58851;42.984;20.336;2023-09-08T02:56:31;358.70;128.00
55331;DHT22;58851;42.984;20.336;2023-09-08T02:58:57;358.80;128.00
55331;DHT22;58851;42.984;20.336;2023-09-08T03:01:22;358.90;128.00
55331;DHT22;58851;42.984;20.336;2023-09-08T03:03:48;358.90;128.00
55331;DHT22;58851;42.984;20.336;2023-09-08T03:06:17;358.90;128.00
55331;DHT22;58851;42.984;20.336;2023-09-08T03:08:44;358.90;128.00
55331;DHT22;58851;42.984;20.336;2023-09-08T03:11:09;358.90;128.00
55331;DHT22;58851;42.984;20.336;2023-09-08T03:13:35;358.70;128.00
55331;DHT22;58851;42.984;20.336;2023-09-08T03:16:06;358.80;128.00
55331;DHT22;58851;42.984;20.336;2023-09-08T03:18:33;358.60;128.00
55331;DHT22;58851;42.984;20.336;2023-09-08T03:20:59;358.70;128.00
55331;DHT22;58851;42.984;20.336;2023-09-08T03:23:38;358.70;128.00
55331;DHT22;58851;42.984;20.336;2023-09-08T03:26:04;358.60;128.00
55331;DHT22;58851;42.984;20.336;2023-09-08T03:28:30;358.60;128.00
55331;DHT22;58851;42.984;20.336;2023-09-08T03:30:56;358.70;128.00
55331;DHT22;58851;42.984;20.336;2023-09-08T03:33:21;358.70;128.00
55331;DHT22;58851;42.984;20.336;2023-09-08T03:35:47;358.60;128.00
55331;DHT22;58851;42.984;20.336;2023-09-08T03:38:13;358.60;128.00
55331;DHT22;58851;42.984;20.336;2023-09-08T03:40:39;358.60;128.00
55331;DHT22;58851;42.984;20.336;2023-09-08T03:43:05;358.60;128.00
55331;DHT22;58851;42.984;20.336;2023-09-08T03:45:30;358.50;128.00
55331;DHT22;58851;42.984;20.336;2023-09-08T03:47:56;358.50;128.00
55331;DHT22;58851;42.984;20.336;2023-09-08T03:50:22;358.50;128.00
55331;DHT22;58851;42.984;20.336;2023-09-08T03:52:48;358.50;128.00
55331;DHT22;58851;42.984;20.336;2023-09-08T03:55:13;358.50;128.00
55331;DHT22;58851;42.984;20.336;2023-09-08T03:57:39;358.50;128.00
55331;DHT22;58851;42.984;20.336;2023-09-08T04:00:06;358.50;128.00
55331;DHT22;58851;42.984;20.336;2023-09-08T04:02:32;358.50;128.00
55331;DHT22;58851;42.984;20.336;2023-09-08T04:04:58;358.40;128.00
55331;DHT22;58851;42.984;20.336;2023-09-08T04:07:24;333.70;128.00
55331;DHT22;58851;42.984;20.336;2023-09-08T04:09:50;333.70;128.00
55331;DHT22;58851;42.984;20.336;2023-09-08T04:12:16;333.70;128.00
55331;DHT22;58851;42.984;20.336;2023-09-08T04:14:42;333.70;128.00
55331;DHT22;58851;42.984;20.336;2023-09-08T04:17:08;333.70;128.00
55331;DHT22;58851;42.984;20.336;2023-09-08T04:19:33;333.60;128.00
55331;DHT22;58851;42.984;20.336;2023-09-08T04:21:59;333.70;128.00
55331;DHT22;58851;42.984;20.336;2023-09-08T04:24:25;333.70;128.00
55331;DHT22;58851;42.984;20.336;2023-09-08T04:26:51;333.70;128.00
55331;DHT22;58851;42.984;20.336;2023-09-08T04:29:17;333.70;128.00
55331;DHT22;58851;42.984;20.336;2023-09-08T04:31:42;333.60;128.00
55331;DHT22;58851;42.984;20.336;2023-09-08T04:34:08;333.70;128.00
55331;DHT22;58851;42.984;20.336;2023-09-08T04:36:34;358.40;128.00
55331;DHT22;58851;42.984;20.336;2023-09-08T04:39:00;333.70;128.00
55331;DHT22;58851;42.984;20.336;2023-09-08T04:41:25;358.40;128.00
55331;DHT22;58851;42.984;20.336;2023-09-08T04:43:51;358.50;128.00
55331;DHT22;58851;42.984;20.336;2023-09-08T04:46:18;358.50;128.00
55331;DHT22;58851;42.984;20.336;2023-09-08T04:48:44;358.50;128.00
55331;DHT22;58851;42.984;20.336;2023-09-08T04:51:10;358.50;128.00
55331;DHT22;58851;42.984;20.336;2023-09-08T04:53:35;358.50;128.00
55331;DHT22;58851;42.984;20.336;2023-09-08T04:56:02;358.50;128.00
55331;DHT22;58851;42.984;20.336;2023-09-08T04:58:27;358.50;128.00
55331;DHT22;58851;42.984;20.336;2023-09-08T05:00:54;358.50;128.00
55331;DHT22;58851;42.984;20.336;2023-09-08T05:03:20;358.60;128.00
55331;DHT22;58851;42.984;20.336;2023-09-08T05:05:46;358.70;128.00
55331;DHT22;58851;42.984;20.336;2023-09-08T05:08:12;358.90;128.00
55331;DHT22;58851;42.984;20.336;2023-09-08T05:10:38;358.90;128.00
55331;DHT22;58851;42.984;20.336;2023-09-08T05:13:03;358.90;128.00
55331;DHT22;58851;42.984;20.336;2023-09-08T05:15:29;359.00;128.00
55331;DHT22;58851;42.984;20.336;2023-09-08T05:17:56;358.90;128.00
55331;DHT22;58851;42.984;20.336;2023-09-08T05:20:22;359.00;128.00
55331;DHT22;58851;42.984;20.336;2023-09-08T05:22:48;359.10;128.00
55331;DHT22;58851;42.984;20.336;2023-09-08T05:25:13;359.20;128.00
55331;DHT22;58851;42.984;20.336;2023-09-08T05:27:39;359.30;128.00
55331;DHT22;58851;42.984;20.336;2023-09-08T05:30:06;359.30;128.00
55331;DHT22;58851;42.984;20.336;2023-09-08T05:32:32;384.00;128.00
55331;DHT22;58851;42.984;20.336;2023-09-08T05:34:58;384.00;128.00
55331;DHT22;58851;42.984;20.336;2023-09-08T05:37:23;384.00;128.00
55331;DHT22;58851;42.984;20.336;2023-09-08T05:39:49;384.00;128.00
55331;DHT22;58851;42.984;20.336;2023-09-08T05:42:15;384.00;128.00
55331;DHT22;58851;42.984;20.336;2023-09-08T05:44:41;384.10;128.00
55331;DHT22;58851;42.984;20.336;2023-09-08T05:47:06;384.20;128.00
55331;DHT22;58851;42.984;20.336;2023-09-08T05:49:32;384.50;128.00
55331;DHT22;58851;42.984;20.336;2023-09-08T05:51:58;384.50;128.00
55331;DHT22;58851;42.984;20.336;2023-09-08T05:54:24;384.60;128.00
55331;DHT22;58851;42.984;20.336;2023-09-08T05:56:50;384.50;128.00
55331;DHT22;58851;42.984;20.336;2023-09-08T05:59:15;384.50;128.00
55331;DHT22;58851;42.984;20.336;2023-09-08T06:01:41;384.70;128.00
55331;DHT22;58851;42.984;20.336;2023-09-08T06:04:07;384.90;128.00
55331;DHT22;58851;42.984;20.336;2023-09-08T06:06:33;409.60;128.00
55331;DHT22;58851;42.984;20.336;2023-09-08T06:08:59;409.80;128.00
55331;DHT22;58851;42.984;20.336;2023-09-08T06:11:25;409.70;128.00
55331;DHT22;58851;42.984;20.336;2023-09-08T06:13:50;409.80;128.00
55331;DHT22;58851;42.984;20.336;2023-09-08T06:16:17;410.00;281.60
55331;DHT22;58851;42.984;20.336;2023-09-08T06:18:43;410.10;409.60
55331;DHT22;58851;42.984;20.336;2023-09-08T06:21:10;410.30;256.00
55331;DHT22;58851;42.984;20.336;2023-09-08T06:23:35;435.20;128.00
55331;DHT22;58851;42.984;20.336;2023-09-08T06:26:01;435.40;128.00
55331;DHT22;58851;42.984;20.336;2023-09-08T06:28:27;435.40;128.00
55331;DHT22;58851;42.984;20.336;2023-09-08T06:30:54;435.70;128.00
55331;DHT22;58851;42.984;20.336;2023-09-08T06:33:20;435.60;128.00
55331;DHT22;58851;42.984;20.336;2023-09-08T06:35:48;435.70;128.00
55331;DHT22;58851;42.984;20.336;2023-09-08T06:38:14;435.90;128.00
55331;DHT22;58851;42.984;20.336;2023-09-08T06:40:39;435.90;128.00
55331;DHT22;58851;42.984;20.336;2023-09-08T06:43:05;435.80;128.00
55331;DHT22;58851;42.984;20.336;2023-09-08T06:45:31;435.70;128.00
55331;DHT22;58851;42.984;20.336;2023-09-08T06:47:57;435.90;128.00
55331;DHT22;58851;42.984;20.336;2023-09-08T06:50:23;435.90;128.00
55331;DHT22;58851;42.984;20.336;2023-09-08T06:52:52;435.90;128.00
55331;DHT22;58851;42.984;20.336;2023-09-08T06:55:18;435.90;128.00
55331;DHT22;58851;42.984;20.336;2023-09-08T06:57:45;436.00;128.00
55331;DHT22;58851;42.984;20.336;2023-09-08T07:00:12;436.10;128.00
55331;DHT22;58851;42.984;20.336;2023-09-08T07:02:39;460.80;128.00
55331;DHT22;58851;42.984;20.336;2023-09-08T07:05:05;461.00;128.00
55331;DHT22;58851;42.984;20.336;2023-09-08T07:07:35;460.90;128.00
55331;DHT22;58851;42.984;20.336;2023-09-08T07:10:04;461.00;128.00
55331;DHT22;58851;42.984;20.336;2023-09-08T07:12:30;461.20;128.00
55331;DHT22;58851;42.984;20.336;2023-09-08T07:14:56;461.30;128.00
55331;DHT22;58851;42.984;20.336;2023-09-08T07:17:22;461.40;128.00
55331;DHT22;58851;42.984;20.336;2023-09-08T07:19:51;461.50;128.00
55331;DHT22;58851;42.984;20.336;2023-09-08T07:22:17;461.50;128.00
55331;DHT22;58851;42.984;20.336;2023-09-08T07:24:44;461.60;128.00
55331;DHT22;58851;42.984;20.336;2023-09-08T07:27:10;461.70;128.00
55331;DHT22;58851;42.984;20.336;2023-09-08T07:29:39;486.40;128.00
55331;DHT22;58851;42.984;20.336;2023-09-08T07:32:06;486.50;128.00
55331;DHT22;58851;42.984;20.336;2023-09-08T07:34:32;486.60;128.00
55331;DHT22;58851;42.984;20.336;2023-09-08T07:36:57;486.70;128.00
55331;DHT22;58851;42.984;20.336;2023-09-08T07:39:23;486.80;128.00
55331;DHT22;58851;42.984;20.336;2023-09-08T07:41:49;487.00;128.00
55331;DHT22;58851;42.984;20.336;2023-09-08T07:44:15;487.00;128.00
55331;DHT22;58851;42.984;20.336;2023-09-08T07:46:40;487.10;128.00
55331;DHT22;58851;42.984;20.336;2023-09-08T07:49:06;487.10;128.00
55331;DHT22;58851;42.984;20.336;2023-09-08T07:51:32;512.00;128.00
55331;DHT22;58851;42.984;20.336;2023-09-08T07:53:58;512.20;128.00
55331;DHT22;58851;42.984;20.336;2023-09-08T07:56:23;512.40;128.00
55331;DHT22;58851;42.984;20.336;2023-09-08T07:58:49;512.60;128.00
55331;DHT22;58851;42.984;20.336;2023-09-08T08:01:15;512.70;128.00
55331;DHT22;58851;42.984;20.336;2023-09-08T08:03:41;512.60;128.00
55331;DHT22;58851;42.984;20.336;2023-09-08T08:06:07;512.90;128.00
55331;DHT22;58851;42.984;20.336;2023-09-08T08:08:33;537.70;128.00
55331;DHT22;58851;42.984;20.336;2023-09-08T08:11:15;537.90;128.00
55331;DHT22;58851;42.984;20.336;2023-09-08T08:13:41;538.10;128.00
55331;DHT22;58851;42.984;20.336;2023-09-08T08:16:07;538.20;128.00
55331;DHT22;58851;42.984;20.336;2023-09-08T08:18:33;538.30;128.00
55331;DHT22;58851;42.984;20.336;2023-09-08T08:20:59;538.30;128.00
55331;DHT22;58851;42.984;20.336;2023-09-08T08:23:26;538.50;128.00
55331;DHT22;58851;42.984;20.336;2023-09-08T08:25:51;563.20;128.00
55331;DHT22;58851;42.984;20.336;2023-09-08T08:28:17;563.30;128.00
55331;DHT22;58851;42.984;20.336;2023-09-08T08:30:43;563.40;128.00
55331;DHT22;58851;42.984;20.336;2023-09-08T08:33:09;563.60;128.00
55331;DHT22;58851;42.984;20.336;2023-09-08T08:35:36;563.40;128.00
55331;DHT22;58851;42.984;20.336;2023-09-08T08:38:02;563.60;128.00
55331;DHT22;58851;42.984;20.336;2023-09-08T08:40:28;563.60;128.00
55331;DHT22;58851;42.984;20.336;2023-09-08T08:42:57;563.50;128.00
55331;DHT22;58851;42.984;20.336;2023-09-08T08:45:26;563.60;128.00
55331;DHT22;58851;42.984;20.336;2023-09-08T08:47:53;563.70;128.00
55331;DHT22;58851;42.984;20.336;2023-09-08T08:50:19;563.70;128.00
55331;DHT22;58851;42.984;20.336;2023-09-08T08:52:46;563.80;128.00
55331;DHT22;58851;42.984;20.336;2023-09-08T08:55:13;563.90;128.00
55331;DHT22;58851;42.984;20.336;2023-09-08T08:57:41;564.00;128.00
55331;DHT22;58851;42.984;20.336;2023-09-08T09:00:09;588.80;128.00
55331;DHT22;58851;42.984;20.336;2023-09-08T09:02:39;589.00;128.00
55331;DHT22;58851;42.984;20.336;2023-09-08T09:05:06;588.90;128.00
55331;DHT22;58851;42.984;20.336;2023-09-08T09:07:33;589.00;128.00
55331;DHT22;58851;42.984;20.336;2023-09-08T09:09:58;589.10;128.00
55331;DHT22;58851;42.984;20.336;2023-09-08T09:12:24;589.20;128.00
55331;DHT22;58851;42.984;20.336;2023-09-08T09:14:53;589.30;128.00
55331;DHT22;58851;42.984;20.336;2023-09-08T09:17:19;589.30;537.60
55331;DHT22;58851;42.984;20.336;2023-09-08T09:19:45;589.30;358.40
55331;DHT22;58851;42.984;20.336;2023-09-08T09:22:11;589.40;204.80
55331;DHT22;58851;42.984;20.336;2023-09-08T09:24:39;589.20;179.20
55331;DHT22;58851;42.984;20.336;2023-09-08T09:27:10;589.20;128.00
55331;DHT22;58851;42.984;20.336;2023-09-08T09:29:49;589.40;460.80
55331;DHT22;58851;42.984;20.336;2023-09-08T09:32:16;589.50;128.00
55331;DHT22;58851;42.984;20.336;2023-09-08T09:34:50;589.60;128.00
55331;DHT22;58851;42.984;20.336;2023-09-08T09:37:16;589.60;128.00
55331;DHT22;58851;42.984;20.336;2023-09-08T09:39:42;614.40;128.00
55331;DHT22;58851;42.984;20.336;2023-09-08T09:42:08;614.40;128.00
55331;DHT22;58851;42.984;20.336;2023-09-08T09:44:34;614.40;128.00
55331;DHT22;58851;42.984;20.336;2023-09-08T09:47:00;589.60;128.00
55331;DHT22;58851;42.984;20.336;2023-09-08T09:49:26;589.70;128.00
55331;DHT22;58851;42.984;20.336;2023-09-08T09:51:58;614.40;128.00
55331;DHT22;58851;42.984;20.336;2023-09-08T09:54:24;589.70;128.00
55331;DHT22;58851;42.984;20.336;2023-09-08T09:56:50;614.40;128.00
55331;DHT22;58851;42.984;20.336;2023-09-08T09:59:17;614.40;128.00
55331;DHT22;58851;42.984;20.336;2023-09-08T10:01:43;589.70;128.00
55331;DHT22;58851;42.984;20.336;2023-09-08T10:04:09;614.40;128.00
55331;DHT22;58851;42.984;20.336;2023-09-08T10:06:37;614.50;128.00
55331;DHT22;58851;42.984;20.336;2023-09-08T10:09:04;614.60;128.00
55331;DHT22;58851;42.984;20.336;2023-09-08T10:11:49;614.60;128.00
55331;DHT22;58851;42.984;20.336;2023-09-08T10:14:18;614.70;128.00
55331;DHT22;58851;42.984;20.336;2023-09-08T10:16:45;614.70;128.00
55331;DHT22;58851;42.984;20.336;2023-09-08T10:19:16;614.80;128.00
55331;DHT22;58851;42.984;20.336;2023-09-08T10:21:45;615.00;128.00
55331;DHT22;58851;42.984;20.336;2023-09-08T10:24:41;614.90;128.00
55331;DHT22;58851;42.984;20.336;2023-09-08T10:27:11;615.00;128.00
55331;DHT22;58851;42.984;20.336;2023-09-08T10:29:38;615.00;128.00
55331;DHT22;58851;42.984;20.336;2023-09-08T10:32:07;615.00;128.00
55331;DHT22;58851;42.984;20.336;2023-09-08T10:34:34;615.10;128.00
55331;DHT22;58851;42.984;20.336;2023-09-08T10:37:00;615.00;128.00
55331;DHT22;58851;42.984;20.336;2023-09-08T10:39:30;615.00;128.00
55331;DHT22;58851;42.984;20.336;2023-09-08T10:47:19;615.10;128.00
55331;DHT22;58851;42.984;20.336;2023-09-08T10:49:45;615.20;128.00
55331;DHT22;58851;42.984;20.336;2023-09-08T10:52:12;615.20;128.00
55331;DHT22;58851;42.984;20.336;2023-09-08T10:54:42;640.00;128.00
55331;DHT22;58851;42.984;20.336;2023-09-08T10:57:16;640.00;128.00
55331;DHT22;58851;42.984;20.336;2023-09-08T11:02:37;640.10;128.00
55331;DHT22;58851;42.984;20.336;2023-09-08T11:07:33;640.30;128.00
55331;DHT22;58851;42.984;20.336;2023-09-08T11:10:02;640.30;128.00
55331;DHT22;58851;42.984;20.336;2023-09-08T11:12:29;640.30;128.00
55331;DHT22;58851;42.984;20.336;2023-09-08T11:14:55;640.30;128.00
55331;DHT22;58851;42.984;20.336;2023-09-08T11:17:25;640.50;128.00
55331;DHT22;58851;42.984;20.336;2023-09-08T11:19:51;640.60;128.00
55331;DHT22;58851;42.984;20.336;2023-09-08T11:22:18;640.70;128.00
55331;DHT22;58851;42.984;20.336;2023-09-08T11:24:44;640.60;128.00
55331;DHT22;58851;42.984;20.336;2023-09-08T11:27:11;640.70;128.00
55331;DHT22;58851;42.984;20.336;2023-09-08T11:29:38;640.80;128.00
55331;DHT22;58851;42.984;20.336;2023-09-08T11:32:08;665.60;153.60
55331;DHT22;58851;42.984;20.336;2023-09-08T11:34:35;665.70;153.60
55331;DHT22;58851;42.984;20.336;2023-09-08T11:37:11;665.90;153.60
55331;DHT22;58851;42.984;20.336;2023-09-08T11:39:42;665.90;153.60
55331;DHT22;58851;42.984;20.336;2023-09-08T11:42:14;666.10;153.60
55331;DHT22;58851;42.984;20.336;2023-09-08T11:44:41;666.20;153.60
55331;DHT22;58851;42.984;20.336;2023-09-08T11:47:09;666.20;153.60
55331;DHT22;58851;42.984;20.336;2023-09-08T11:49:40;666.40;153.60
55331;DHT22;58851;42.984;20.336;2023-09-08T11:52:07;666.40;153.60
55331;DHT22;58851;42.984;20.336;2023-09-08T11:54:34;666.50;153.60
55331;DHT22;58851;42.984;20.336;2023-09-08T11:57:02;666.50;153.60
55331;DHT22;58851;42.984;20.336;2023-09-08T11:59:31;666.50;153.60
55331;DHT22;58851;42.984;20.336;2023-09-08T12:01:58;691.20;153.60
55331;DHT22;58851;42.984;20.336;2023-09-08T12:04:24;691.40;153.60
55331;DHT22;58851;42.984;20.336;2023-09-08T12:06:52;691.50;153.60
55331;DHT22;58851;42.984;20.336;2023-09-08T12:09:22;691.40;153.60
55331;DHT22;58851;42.984;20.336;2023-09-08T12:11:47;691.70;153.60
55331;DHT22;58851;42.984;20.336;2023-09-08T12:14:14;691.70;153.60
55331;DHT22;58851;42.984;20.336;2023-09-08T12:16:43;692.00;153.60
55331;DHT22;58851;42.984;20.336;2023-09-08T12:19:31;692.10;153.60
55331;DHT22;58851;42.984;20.336;2023-09-08T12:22:02;716.90;179.20
55331;DHT22;58851;42.984;20.336;2023-09-08T12:24:56;717.20;179.20
55331;DHT22;58851;42.984;20.336;2023-09-08T12:27:22;717.40;179.20
55331;DHT22;58851;42.984;20.336;2023-09-08T12:29:59;717.60;179.20
55331;DHT22;58851;42.984;20.336;2023-09-08T12:32:31;717.30;179.20
55331;DHT22;58851;42.984;20.336;2023-09-08T12:34:58;717.50;179.20
55331;DHT22;58851;42.984;20.336;2023-09-08T12:37:26;742.40;204.80
55331;DHT22;58851;42.984;20.336;2023-09-08T12:39:56;742.50;204.80
55331;DHT22;58851;42.984;20.336;2023-09-08T12:42:22;742.40;204.80
55331;DHT22;58851;42.984;20.336;2023-09-08T12:44:51;742.70;204.80
55331;DHT22;58851;42.984;20.336;2023-09-08T12:47:17;743.00;204.80
55331;DHT22;58851;42.984;20.336;2023-09-08T12:49:43;742.90;204.80
55331;DHT22;58851;42.984;20.336;2023-09-08T12:52:09;743.10;204.80
55331;DHT22;58851;42.984;20.336;2023-09-08T12:54:35;743.00;204.80
55331;DHT22;58851;42.984;20.336;2023-09-08T12:57:02;768.00;204.80
55331;DHT22;58851;42.984;20.336;2023-09-08T12:59:28;768.50;204.80
55331;DHT22;58851;42.984;20.336;2023-09-08T13:01:55;793.60;230.40
55331;DHT22;58851;42.984;20.336;2023-09-08T13:04:21;793.80;230.40
55331;DHT22;58851;42.984;20.336;2023-09-08T13:06:48;768.60;204.80
55331;DHT22;58851;42.984;20.336;2023-09-08T13:09:15;768.20;204.80
55331;DHT22;58851;42.984;20.336;2023-09-08T13:11:44;793.70;230.40
55331;DHT22;58851;42.984;20.336;2023-09-08T13:14:10;793.60;230.40
55331;DHT22;58851;42.984;20.336;2023-09-08T13:16:36;794.10;230.40
55331;DHT22;58851;42.984;20.336;2023-09-08T13:19:02;793.60;230.40
55331;DHT22;58851;42.984;20.336;2023-09-08T13:21:27;793.60;230.40
55331;DHT22;58851;42.984;20.336;2023-09-08T13:23:53;793.60;230.40
55331;DHT22;58851;42.984;20.336;2023-09-08T13:26:19;794.30;230.40
55331;DHT22;58851;42.984;20.336;2023-09-08T13:28:45;794.30;230.40
55331;DHT22;58851;42.984;20.336;2023-09-08T13:31:10;794.00;230.40
55331;DHT22;58851;42.984;20.336;2023-09-08T13:33:36;793.80;230.40
55331;DHT22;58851;42.984;20.336;2023-09-08T13:36:02;768.90;204.80
55331;DHT22;58851;42.984;20.336;2023-09-08T13:38:28;793.60;230.40
55331;DHT22;58851;42.984;20.336;2023-09-08T13:40:54;794.10;230.40
55331;DHT22;58851;42.984;20.336;2023-09-08T13:43:19;794.30;230.40
55331;DHT22;58851;42.984;20.336;2023-09-08T13:45:45;768.70;204.80
55331;DHT22;58851;42.984;20.336;2023-09-08T13:48:11;768.10;204.80
55331;DHT22;58851;42.984;20.336;2023-09-08T13:50:39;793.80;230.40
55331;DHT22;58851;42.984;20.336;2023-09-08T13:53:06;819.20;230.40
55331;DHT22;58851;42.984;20.336;2023-09-08T13:55:31;820.00;230.40
55331;DHT22;58851;42.984;20.336;2023-09-08T13:57:57;844.80;256.00
55331;DHT22;58851;42.984;20.336;2023-09-08T14:00:23;845.30;256.00
55331;DHT22;58851;42.984;20.336;2023-09-08T14:02:49;845.40;256.00
55331;DHT22;58851;42.984;20.336;2023-09-08T14:05:15;845.10;256.00
55331;DHT22;58851;42.984;20.336;2023-09-08T14:07:41;845.50;256.00
55331;DHT22;58851;42.984;20.336;2023-09-08T14:10:06;845.00;256.00
55331;DHT22;58851;42.984;20.336;2023-09-08T14:12:33;845.00;256.00
55331;DHT22;58851;42.984;20.336;2023-09-08T14:14:59;870.50;256.00
55331;DHT22;58851;42.984;20.336;2023-09-08T14:17:25;870.90;256.00
55331;DHT22;58851;42.984;20.336;2023-09-08T14:19:51;896.10;256.00
55331;DHT22;58851;42.984;20.336;2023-09-08T14:22:16;896.40;256.00
55331;DHT22;58851;42.984;20.336;2023-09-08T14:24:42;921.60;281.60
55331;DHT22;58851;42.984;20.336;2023-09-08T14:27:08;921.60;281.60
55331;DHT22;58851;42.984;20.336;2023-09-08T14:29:34;921.60;281.60
55331;DHT22;58851;42.984;20.336;2023-09-08T14:32:00;921.80;281.60
55331;DHT22;58851;42.984;20.336;2023-09-08T14:34:26;922.20;281.60
55331;DHT22;58851;42.984;20.336;2023-09-08T14:36:52;921.90;281.60
55331;DHT22;58851;42.984;20.336;2023-09-08T14:39:18;896.00;256.00
55331;DHT22;58851;42.984;20.336;2023-09-08T14:41:48;845.60;256.00
55331;DHT22;58851;42.984;20.336;2023-09-08T14:44:16;845.20;256.00
55331;DHT22;58851;42.984;20.336;2023-09-08T14:46:41;844.80;256.00
55331;DHT22;58851;42.984;20.336;2023-09-08T14:49:07;819.20;230.40
55331;DHT22;58851;42.984;20.336;2023-09-08T14:51:33;793.60;230.40
55331;DHT22;58851;42.984;20.336;2023-09-08T14:53:58;768.80;204.80
55331;DHT22;58851;42.984;20.336;2023-09-08T14:56:24;768.10;204.80
55331;DHT22;58851;42.984;20.336;2023-09-08T14:58:50;768.90;204.80
55331;DHT22;58851;42.984;20.336;2023-09-08T15:01:16;819.80;230.40